Time;durP1;ratioP1;P1;durP2;ratioP2;P2;SDS_P1;SDS_P2;PMS_P1;PMS_P2;Temp;Humidity;BMP_temperature;BMP_pressure;BME280_temperature;BME280_humidity;BME280_pressure;Samples;Min_cycle;Max_cycle;Signal;HPM_P1;HPM_P2
2023/03/10 00:01:13;;;;;;;6.70;1.30;;;;;;;17.32;50.94;93204.47;5077571;28;20031;-89
2023/03/10 00:03:39;;;;;;;7.47;1.80;;;;;;;17.42;49.92;93221.00;5060730;28;20330;-89
2023/03/10 00:06:05;;;;;;;6.75;1.17;;;;;;;16.76;53.17;93208.63;5077199;28;20020;-89
2023/03/10 00:08:31;;;;;;;8.02;1.35;;;;;;;16.92;52.04;93216.63;5060383;28;20028;-89
2023/03/10 00:10:56;;;;;;;7.72;1.60;;;;;;;17.43;51.33;93217.25;5060695;28;20123;-89
2023/03/10 00:13:21;;;;;;;3.95;1.48;;;;;;;16.80;53.04;93216.66;5077624;28;20056;-89
2023/03/10 00:15:47;;;;;;;8.93;1.25;;;;;;;17.55;51.21;93221.69;5060575;28;20082;-89
2023/03/10 00:18:13;;;;;;;7.45;1.30;;;;;;;16.52;54.42;93215.50;5060360;28;20337;-89
2023/03/10 00:20:38;;;;;;;7.20;1.40;;;;;;;17.53;52.08;93228.09;5060824;28;20028;-89
2023/03/10 00:23:04;;;;;;;7.45;1.35;;;;;;;17.20;52.66;93220.41;5076982;28;20028;-89
2023/03/10 00:25:29;;;;;;;6.93;1.40;;;;;;;16.43;54.78;93217.50;5076939;28;20323;-89
2023/03/10 00:27:55;;;;;;;7.72;1.40;;;;;;;16.68;54.35;93212.94;5076843;28;20033;-89
2023/03/10 00:30:20;;;;;;;7.43;1.58;;;;;;;16.70;54.37;93220.53;5076954;28;20123;-89
2023/03/10 00:32:45;;;;;;;8.95;1.80;;;;;;;16.54;55.24;93202.72;5060209;28;20426;-88
2023/03/10 00:35:11;;;;;;;5.45;1.40;;;;;;;16.78;55.19;93211.69;5076639;28;20028;-89
2023/03/10 00:37:37;;;;;;;10.45;1.65;;;;;;;16.66;55.32;93209.09;5077055;28;20372;-89
2023/03/10 00:40:06;;;;;;;6.15;1.27;;;;;;;17.46;53.33;93211.25;5059850;28;20024;-89
2023/03/10 00:42:31;;;;;;;7.18;1.92;;;;;;;17.30;52.56;93203.31;5060235;28;20024;-90
2023/03/10 00:44:57;;;;;;;5.55;1.23;;;;;;;17.69;52.21;93205.41;5076368;28;20028;-87
2023/03/10 00:47:22;;;;;;;13.38;1.92;;;;;;;17.89;51.54;93196.44;5059977;28;20166;-89
2023/03/10 00:49:48;;;;;;;5.07;1.20;;;;;;;17.73;51.60;93193.00;5076418;28;20028;-89
2023/03/10 00:52:13;;;;;;;6.10;1.00;;;;;;;18.06;50.81;93199.88;5076394;28;20396;-89
2023/03/10 00:54:40;;;;;;;5.68;1.15;;;;;;;17.69;51.39;93206.16;5077579;28;20025;-90
2023/03/10 00:57:06;;;;;;;6.57;1.63;;;;;;;17.36;52.93;93186.84;5076485;28;20511;-89
2023/03/10 00:59:31;;;;;;;6.68;1.20;;;;;;;17.56;51.74;93189.59;5027877;28;1394688;-89
2023/03/10 01:01:57;;;;;;;6.70;1.20;;;;;;;17.03;53.94;93185.19;5077236;28;20059;-89
2023/03/10 01:04:22;;;;;;;8.45;1.50;;;;;;;16.24;56.16;93176.56;5060762;28;20028;-89
2023/03/10 01:06:47;;;;;;;6.40;1.60;;;;;;;17.31;53.43;93181.78;5077207;28;20422;-89
2023/03/10 01:09:13;;;;;;;4.35;1.08;;;;;;;17.18;53.78;93167.84;5060474;28;20039;-89
2023/03/10 01:11:39;;;;;;;2.30;1.13;;;;;;;17.00;54.28;93156.78;5076769;28;20029;-89
2023/03/10 01:14:06;;;;;;;6.22;1.30;;;;;;;17.77;52.12;93152.25;5060541;28;20032;-89
2023/03/10 01:16:32;;;;;;;5.25;1.33;;;;;;;17.17;53.12;93158.34;5060251;28;20109;-90
2023/03/10 01:18:58;;;;;;;7.07;1.73;;;;;;;16.80;54.88;93153.97;5075808;28;20064;-88
2023/03/10 01:21:29;;;;;;;8.05;1.13;;;;;;;17.67;52.80;93142.16;5060467;28;20063;-89
2023/03/10 01:23:54;;;;;;;8.82;1.40;;;;;;;16.99;53.79;93134.06;5076630;28;20327;-89
2023/03/10 01:26:20;;;;;;;16.13;1.50;;;;;;;16.84;54.18;93132.13;5076724;28;20043;-89
2023/03/10 01:28:46;;;;;;;2.80;1.30;;;;;;;17.41;53.08;93119.59;5076607;28;20419;-89
2023/03/10 01:31:12;;;;;;;6.30;1.45;;;;;;;17.37;53.16;93124.84;5076719;28;20052;-89
2023/03/10 01:33:39;;;;;;;6.22;1.10;;;;;;;17.26;53.03;93115.84;5076836;28;20105;-88
2023/03/10 01:36:14;;;;;;;5.75;1.10;;;;;;;17.05;53.51;93113.44;5076588;28;20486;-88
2023/03/10 01:38:41;;;;;;;5.70;1.00;;;;;;;17.04;53.19;93112.66;5076438;28;20105;-90
2023/03/10 01:41:07;;;;;;;3.63;1.52;;;;;;;16.94;53.51;93107.84;5076276;28;20032;-89
2023/03/10 01:43:34;;;;;;;9.10;1.52;;;;;;;16.22;55.43;93093.41;5076501;28;20029;-89
2023/03/10 01:46:00;;;;;;;3.20;1.20;;;;;;;16.17;55.75;93093.66;5059720;28;20033;-89
2023/03/10 01:48:27;;;;;;;4.75;1.40;;;;;;;16.14;55.19;93084.50;5076155;28;20043;-89
2023/03/10 01:50:54;;;;;;;4.57;1.20;;;;;;;15.97;55.31;93075.75;5076291;28;20467;-89
2023/03/10 01:53:20;;;;;;;4.63;1.17;;;;;;;16.38;54.40;93081.03;5076334;28;20032;-89
2023/03/10 01:55:49;;;;;;;6.35;0.95;;;;;;;16.58;52.97;93070.63;5059847;28;20033;-89
2023/03/10 01:58:16;;;;;;;4.75;1.30;;;;;;;16.75;52.96;93077.47;5076063;28;20085;-89
2023/03/10 02:00:42;;;;;;;5.20;0.93;;;;;;;16.97;52.06;93070.13;5076494;28;20024;-89
2023/03/10 02:03:16;;;;;;;5.38;1.10;;;;;;;17.35;51.55;93068.03;5076214;28;20024;-89
2023/03/10 02:05:52;;;;;;;6.25;1.58;;;;;;;17.15;52.08;93059.22;5059665;28;20364;-89
2023/03/10 02:08:19;;;;;;;4.05;1.05;;;;;;;17.00;52.95;93052.81;5075950;28;20488;-88
2023/03/10 02:10:45;;;;;;;8.43;1.20;;;;;;;16.91;52.75;93061.66;5059876;28;20123;-88
2023/03/10 02:13:11;;;;;;;7.75;0.90;;;;;;;16.83;52.54;93057.28;5076021;28;20094;-89
2023/03/10 02:15:36;;;;;;;4.18;1.25;;;;;;;16.68;53.89;93051.63;5059442;28;20056;-89
2023/03/10 02:18:05;;;;;;;7.28;0.85;;;;;;;16.71;54.17;93054.69;5059421;28;20337;-89
2023/03/10 02:21:07;;;;;;;3.80;0.95;;;;;;;16.46;54.39;93045.00;5076625;28;20043;-89
2023/03/10 02:23:46;;;;;;;6.57;1.10;;;;;;;16.69;53.85;93036.53;5075831;28;20028;-89
2023/03/10 02:26:29;;;;;;;6.40;1.27;;;;;;;16.58;53.68;93032.84;5059383;28;20067;-88
2023/03/10 02:28:56;;;;;;;5.82;1.05;;;;;;;16.16;55.74;93034.75;5075725;28;20063;-88
2023/03/10 02:31:22;;;;;;;3.20;1.23;;;;;;;16.21;55.07;93039.03;5059224;28;20081;-89
2023/03/10 02:33:49;;;;;;;5.63;1.17;;;;;;;16.44;54.64;93041.16;5075795;28;20032;-88
2023/03/10 02:36:22;;;;;;;5.60;1.40;;;;;;;16.04;55.53;93030.28;5075471;28;20392;-89
2023/03/10 02:38:48;;;;;;;6.10;1.55;;;;;;;15.32;56.96;93033.41;5075833;28;20414;-89
2023/03/10 02:41:24;;;;;;;1.58;0.85;;;;;;;16.24;54.47;93017.22;5075497;28;20039;-89
2023/03/10 02:43:49;;;;;;;6.25;1.10;;;;;;;15.88;55.78;93019.59;5059155;28;20028;-89
2023/03/10 02:46:15;;;;;;;6.57;1.60;;;;;;;15.91;56.27;93023.47;5059141;28;20028;-89
2023/03/10 02:48:41;;;;;;;2.60;1.35;;;;;;;16.02;55.10;93021.13;5075463;28;20085;-89
2023/03/10 02:51:19;;;;;;;4.00;1.13;;;;;;;16.27;55.10;93023.72;5059100;28;20028;-89
2023/03/10 02:53:45;;;;;;;3.45;1.00;;;;;;;16.08;55.52;93038.31;5075806;28;20017;-89
2023/03/10 02:56:11;;;;;;;2.90;0.80;;;;;;;16.03;55.42;93030.59;5075564;28;20024;-89
2023/03/10 02:58:36;;;;;;;3.95;0.85;;;;;;;16.37;55.14;93029.28;5075243;28;20031;-89
2023/03/10 03:01:03;;;;;;;2.45;0.80;;;;;;;16.26;54.71;93028.22;5075487;28;20028;-89
2023/03/10 03:03:29;;;;;;;2.90;0.95;;;;;;;16.14;55.51;93026.38;5059217;28;20059;-89
2023/03/10 03:05:55;;;;;;;3.92;0.88;;;;;;;16.18;55.25;93018.56;5075241;28;20434;-89
2023/03/10 03:08:20;;;;;;;6.43;1.20;;;;;;;16.44;53.97;93018.13;5058769;28;20025;-89
2023/03/10 03:10:46;;;;;;;7.78;0.77;;;;;;;16.36;54.34;93027.00;5075413;28;20223;-89
2023/03/10 03:13:11;;;;;;;3.45;0.90;;;;;;;16.50;53.89;93008.09;5075415;28;20098;-89
2023/03/10 03:15:37;;;;;;;3.55;1.02;;;;;;;15.46;56.60;93004.03;5075296;28;20028;-89
2023/03/10 03:18:03;;;;;;;4.97;0.90;;;;;;;16.25;54.57;93001.03;5058876;28;20020;-89
2023/03/10 03:20:30;;;;;;;5.47;0.88;;;;;;;15.43;57.88;93004.69;5074975;28;20020;-89
2023/03/10 03:22:56;;;;;;;2.30;0.70;;;;;;;16.37;54.42;93008.13;5076476;28;20024;-89
2023/03/10 03:25:22;;;;;;;2.63;0.90;;;;;;;16.28;54.28;93004.09;5074956;28;20357;-89
2023/03/10 03:27:48;;;;;;;5.40;0.95;;;;;;;16.10;54.75;92999.09;5058737;28;20059;-90
2023/03/10 03:30:17;;;;;;;1.33;0.65;;;;;;;16.19;54.97;92988.41;5058305;28;20537;-90
2023/03/10 03:32:43;;;;;;;4.13;0.98;;;;;;;15.80;55.67;92980.91;5058718;28;20031;-89
2023/03/10 03:35:11;;;;;;;9.15;1.15;;;;;;;15.86;56.77;92989.34;5046708;28;20025;-90
2023/03/10 03:37:36;;;;;;;3.58;0.80;;;;;;;15.67;58.36;92975.63;5062880;28;20024;-89
2023/03/10 03:40:11;;;;;;;3.58;0.93;;;;;;;16.51;56.85;92973.41;5055076;28;20039;-89
2023/03/10 03:42:37;;;;;;;3.92;1.00;;;;;;;16.46;56.45;92951.72;5073167;28;20039;-89
2023/03/10 03:45:03;;;;;;;4.15;1.08;;;;;;;16.28;57.19;92948.63;5058753;28;20031;-90
2023/03/10 03:47:29;;;;;;;4.40;1.08;;;;;;;16.07;57.59;92934.50;5058475;28;20024;-90
2023/03/10 03:49:54;;;;;;;3.08;1.05;;;;;;;16.04;56.83;92927.25;5041832;28;20537;-90
2023/03/10 03:52:19;;;;;;;3.08;1.13;;;;;;;16.25;55.62;92934.97;5058294;28;20025;-90
2023/03/10 03:54:45;;;;;;;1.90;0.70;;;;;;;17.06;52.62;92932.41;5058294;28;20024;-90
2023/03/10 03:57:10;;;;;;;2.92;0.90;;;;;;;16.67;53.65;92948.84;5058278;28;20025;-90
2023/03/10 03:59:36;;;;;;;4.10;0.85;;;;;;;15.72;56.09;92944.81;5058056;28;20055;-89
2023/03/10 04:02:01;;;;;;;3.10;0.73;;;;;;;16.46;54.63;92949.84;5042041;28;20024;-90
2023/03/10 04:04:26;;;;;;;9.50;0.93;;;;;;;16.79;54.38;92946.13;5058203;28;20032;-90
2023/03/10 04:06:52;;;;;;;3.60;1.08;;;;;;;16.16;55.92;92944.91;5041968;28;20029;-89
2023/03/10 04:09:17;;;;;;;5.35;0.70;;;;;;;16.08;56.14;92956.41;5058146;28;20434;-89
2023/03/10 04:11:43;;;;;;;6.00;0.93;;;;;;;16.04;56.78;92953.66;5041825;28;20029;-90
2023/03/10 04:14:08;;;;;;;3.17;1.02;;;;;;;16.02;58.08;92937.38;5041793;28;20452;-89
2023/03/10 04:16:34;;;;;;;3.55;1.00;;;;;;;17.14;54.46;92936.72;5058194;28;20059;-90
2023/03/10 04:19:00;;;;;;;3.80;0.90;;;;;;;17.16;54.05;92933.75;5041203;28;20032;-90
2023/03/10 04:21:26;;;;;;;4.38;1.02;;;;;;;17.10;53.75;92938.53;5041511;28;20028;-90
2023/03/10 04:23:51;;;;;;;4.28;0.77;;;;;;;16.29;56.66;92937.72;5057791;28;20098;-90
2023/03/10 04:26:16;;;;;;;3.65;1.00;;;;;;;16.71;55.60;92923.25;5041336;28;20033;-90
2023/03/10 04:28:42;;;;;;;6.32;1.15;;;;;;;16.88;54.14;92911.56;5057429;28;20422;-90
2023/03/10 04:31:14;;;;;;;5.63;0.98;;;;;;;16.85;54.62;92903.53;5041163;28;20064;-90
2023/03/10 04:33:39;;;;;;;3.65;1.27;;;;;;;17.42;52.56;92898.75;5041291;28;20025;-89
2023/03/10 04:36:05;;;;;;;4.85;1.00;;;;;;;17.34;52.77;92903.13;5057843;28;20047;-90
2023/03/10 04:38:31;;;;;;;2.28;0.80;;;;;;;17.12;53.12;92901.91;5057415;28;20067;-90
2023/03/10 04:40:57;;;;;;;3.97;0.95;;;;;;;16.80;53.98;92886.06;5057422;28;20086;-89
2023/03/10 04:43:23;;;;;;;2.80;0.80;;;;;;;16.94;52.30;92867.84;5057627;28;20025;-90
2023/03/10 04:45:48;;;;;;;1.85;0.85;;;;;;;17.18;51.82;92879.38;5040999;28;20021;-90
2023/03/10 04:48:14;;;;;;;2.88;0.70;;;;;;;17.63;51.66;92881.78;5058315;28;20029;-90
2023/03/10 04:50:40;;;;;;;4.18;1.02;;;;;;;17.22;52.71;92888.16;5057264;28;20057;-90
2023/03/10 04:53:05;;;;;;;2.67;0.80;;;;;;;17.07;53.40;92887.09;5057545;28;20032;-91
2023/03/10 04:55:31;;;;;;;2.30;0.80;;;;;;;16.85;53.69;92882.38;5057149;28;20541;-90
2023/03/10 04:57:57;;;;;;;3.97;1.00;;;;;;;17.21;53.14;92872.59;5057087;28;20131;-90
2023/03/10 05:00:22;;;;;;;3.42;0.95;;;;;;;17.51;52.01;92851.69;5040485;28;20041;-90
2023/03/10 05:02:47;;;;;;;2.95;1.00;;;;;;;17.32;52.17;92856.97;5057040;28;20115;-90
2023/03/10 05:05:13;;;;;;;3.05;0.95;;;;;;;16.70;53.43;92862.75;5040571;28;20035;-90
2023/03/10 05:07:39;;;;;;;2.63;1.13;;;;;;;17.16;52.49;92857.00;5056862;28;20445;-90
2023/03/10 05:10:04;;;;;;;2.63;0.88;;;;;;;17.34;52.57;92849.44;5058222;28;20029;-91
2023/03/10 05:12:30;;;;;;;2.58;0.80;;;;;;;16.74;53.97;92845.88;5040462;28;20039;-90
2023/03/10 05:14:55;;;;;;;1.73;1.00;;;;;;;17.37;52.26;92844.22;5040469;28;20020;-89
2023/03/10 05:17:23;;;;;;;6.57;1.13;;;;;;;16.52;54.84;92837.47;5056936;28;20028;-90
2023/03/10 05:19:48;;;;;;;11.80;1.23;;;;;;;16.82;54.15;92826.41;5056578;28;20028;-89
2023/03/10 05:22:14;;;;;;;2.15;0.90;;;;;;;17.05;53.34;92827.69;5040471;28;20127;-90
2023/03/10 05:24:39;;;;;;;4.40;0.90;;;;;;;16.80;54.21;92841.88;5057996;28;20033;-90
2023/03/10 05:27:07;;;;;;;1.92;0.80;;;;;;;17.18;53.36;92844.19;5076233;28;20028;-90
2023/03/10 05:29:32;;;;;;;1.45;0.70;;;;;;;17.38;53.07;92845.75;5060003;28;20122;-90
2023/03/10 05:32:01;;;;;;;2.20;0.90;;;;;;;16.80;54.54;92843.75;5076335;28;20028;-90
2023/03/10 05:34:26;;;;;;;2.80;0.80;;;;;;;16.50;56.02;92844.19;5077377;28;20028;-90
2023/03/10 05:36:55;;;;;;;2.35;0.80;;;;;;;17.09;55.19;92836.44;5076224;28;20032;-90
2023/03/10 05:39:21;;;;;;;4.95;1.10;;;;;;;17.04;55.56;92828.78;5076185;28;20103;-91
2023/03/10 05:41:46;;;;;;;2.10;0.70;;;;;;;16.80;55.42;92810.13;5076228;28;20120;-89
2023/03/10 05:44:12;;;;;;;1.25;0.60;;;;;;;17.19;53.95;92811.31;5076432;28;20074;-90
2023/03/10 05:46:37;;;;;;;1.27;0.70;;;;;;;17.26;53.41;92800.91;5059696;28;20054;-90
2023/03/10 05:49:03;;;;;;;3.80;1.02;;;;;;;16.49;55.62;92787.91;5073993;28;20029;-90
2023/03/10 05:51:28;;;;;;;1.00;0.80;;;;;;;16.68;54.85;92778.50;5076535;28;20029;-90
2023/03/10 05:53:54;;;;;;;0.93;0.60;;;;;;;17.02;54.20;92778.88;5076199;28;20459;-90
2023/03/10 05:56:20;;;;;;;5.03;1.20;;;;;;;16.41;56.06;92778.28;5059638;28;20025;-91
2023/03/10 05:58:46;;;;;;;1.15;0.70;;;;;;;17.02;54.72;92770.19;5076066;28;20025;-90
2023/03/10 06:01:12;;;;;;;1.70;0.80;;;;;;;16.68;55.74;92775.88;5076115;28;20449;-90
2023/03/10 06:03:37;;;;;;;2.42;0.70;;;;;;;16.64;55.34;92767.84;5072493;28;20032;-89
2023/03/10 06:06:05;;;;;;;1.90;0.65;;;;;;;16.79;55.86;92752.28;5055843;28;20029;-89
2023/03/10 06:08:31;;;;;;;1.08;0.57;;;;;;;16.81;55.50;92750.84;5073963;28;20119;-89
2023/03/10 06:10:57;;;;;;;2.75;1.00;;;;;;;17.09;55.07;92755.22;5075659;28;20173;-88
2023/03/10 06:13:23;;;;;;;3.05;1.33;;;;;;;17.31;54.71;92754.88;5056184;28;20032;-88
2023/03/10 06:15:50;;;;;;;1.65;0.70;;;;;;;17.24;54.83;92766.06;5056002;28;20029;-88
2023/03/10 06:18:16;;;;;;;9.27;1.70;;;;;;;17.39;55.05;92783.00;5039334;28;20033;-92
2023/03/10 06:20:41;;;;;;;5.00;0.70;;;;;;;16.93;57.17;92778.28;5038581;28;20028;-92
2023/03/10 06:23:07;;;;;;;3.95;0.75;;;;;;;16.85;57.56;92773.94;5039315;28;20385;-93
2023/03/10 06:25:32;;;;;;;2.13;0.70;;;;;;;16.22;59.28;92765.75;5056823;28;20068;-91
2023/03/10 06:27:58;;;;;;;4.15;0.80;;;;;;;17.22;58.69;92758.47;5055918;28;20037;-91
2023/03/10 06:30:23;;;;;;;4.55;0.70;;;;;;;17.99;55.71;92743.94;5055385;28;20033;-93
2023/03/10 06:32:49;;;;;;;3.20;0.73;;;;;;;18.29;54.10;92751.25;5072367;28;20423;-92
2023/03/10 06:35:15;;;;;;;2.83;0.63;;;;;;;18.17;55.07;92750.31;5058772;28;20058;-91
2023/03/10 06:37:41;;;;;;;1.73;0.60;;;;;;;18.20;54.79;92743.53;5059067;28;20123;-91
2023/03/10 06:40:08;;;;;;;3.25;0.82;;;;;;;18.24;54.17;92741.72;5058729;28;20127;-92
2023/03/10 06:42:34;;;;;;;1.63;0.63;;;;;;;18.30;54.00;92742.94;5075586;28;20024;-92
2023/03/10 06:44:59;;;;;;;2.70;0.55;;;;;;;18.54;53.67;92746.31;5059272;28;20038;-91
2023/03/10 06:47:25;;;;;;;3.03;0.80;;;;;;;17.86;54.60;92733.50;5075389;28;20037;-92
2023/03/10 06:49:53;;;;;;;2.28;0.60;;;;;;;18.66;54.41;92742.69;5075304;28;20032;-91
2023/03/10 06:52:18;;;;;;;1.50;0.45;;;;;;;18.90;54.08;92741.50;5075353;28;20143;-92
2023/03/10 06:54:44;;;;;;;1.63;0.80;;;;;;;18.82;53.21;92747.06;5059223;28;20059;-92
2023/03/10 06:57:09;;;;;;;2.05;0.65;;;;;;;18.37;55.01;92756.31;5058837;28;20101;-91
2023/03/10 06:59:35;;;;;;;2.22;0.75;;;;;;;18.90;52.77;92740.72;5058544;28;20480;-92
2023/03/10 07:02:00;;;;;;;1.35;0.75;;;;;;;18.07;54.26;92750.91;5075368;28;20032;-91
2023/03/10 07:04:26;;;;;;;6.72;0.90;;;;;;;18.56;53.08;92751.25;5058832;28;20038;-91
2023/03/10 07:06:51;;;;;;;2.65;0.80;;;;;;;18.58;53.13;92747.16;5058660;28;20074;-92
2023/03/10 07:09:16;;;;;;;2.53;0.88;;;;;;;18.32;54.01;92745.22;5058805;28;20044;-91
2023/03/10 07:11:42;;;;;;;2.15;0.70;;;;;;;18.43;54.10;92754.13;5075322;28;20098;-92
2023/03/10 07:14:07;;;;;;;2.50;0.70;;;;;;;18.58;53.84;92752.44;5058421;28;20426;-92
2023/03/10 07:16:33;;;;;;;4.03;1.00;;;;;;;18.87;52.55;92736.91;5075804;28;20345;-93
2023/03/10 07:18:58;;;;;;;2.20;0.50;;;;;;;19.18;52.96;92747.53;5062531;28;20422;-92
2023/03/10 07:21:24;;;;;;;1.55;0.75;;;;;;;19.05;52.50;92747.00;5062712;28;20036;-93
2023/03/10 07:23:49;;;;;;;3.03;0.65;;;;;;;18.77;52.79;92742.84;5078980;28;20043;-92
2023/03/10 07:26:17;;;;;;;1.58;0.60;;;;;;;19.12;51.98;92743.69;5078956;28;20028;-91
2023/03/10 07:28:43;;;;;;;7.90;1.27;;;;;;;18.28;53.21;92737.22;5062495;28;20036;-92
2023/03/10 07:31:11;;;;;;;1.48;0.80;;;;;;;18.92;52.04;92739.25;5062454;28;20085;-91
2023/03/10 07:33:37;;;;;;;1.95;0.60;;;;;;;19.17;51.16;92744.13;5062569;28;20039;-92
2023/03/10 07:36:08;;;;;;;1.50;0.68;;;;;;;19.39;50.76;92744.38;5062583;28;20032;-92
2023/03/10 07:38:34;;;;;;;2.60;0.90;;;;;;;19.36;50.20;92735.22;5062181;28;20029;-93
2023/03/10 07:41:00;;;;;;;2.42;0.65;;;;;;;19.37;51.36;92736.00;5078716;28;20434;-91
2023/03/10 07:43:25;;;;;;;3.83;0.75;;;;;;;19.12;51.60;92728.50;5062237;28;20032;-92
2023/03/10 07:45:51;;;;;;;1.48;0.60;;;;;;;19.01;53.00;92707.16;5062085;28;20032;-91
2023/03/10 07:48:16;;;;;;;2.15;0.80;;;;;;;18.89;52.73;92725.94;5078759;28;20349;-92
2023/03/10 07:50:42;;;;;;;2.70;1.00;;;;;;;19.02;52.13;92727.25;5061986;28;20035;-93
2023/03/10 07:53:07;;;;;;;4.00;0.70;;;;;;;19.48;51.28;92736.88;5062174;28;20024;-93
2023/03/10 07:55:33;;;;;;;3.50;0.85;;;;;;;19.26;51.56;92738.53;5078400;28;20111;-91
2023/03/10 07:57:59;;;;;;;3.80;0.95;;;;;;;18.53;52.54;92733.41;5061816;28;20064;-91
2023/03/10 08:00:26;;;;;;;3.60;0.75;;;;;;;18.94;51.88;92729.03;5062085;28;20067;-91
2023/03/10 08:02:51;;;;;;;3.90;1.13;;;;;;;17.83;54.18;92725.50;5061722;28;20446;-91
2023/03/10 08:05:17;;;;;;;5.30;0.98;;;;;;;17.90;55.13;92739.63;5078186;28;20043;-91
2023/03/10 08:07:46;;;;;;;6.03;1.00;;;;;;;17.80;56.40;92738.34;5077983;28;20036;-88
2023/03/10 08:10:12;;;;;;;2.55;0.82;;;;;;;18.21;55.54;92727.25;5067930;28;20028;-89
2023/03/10 08:12:37;;;;;;;6.30;1.30;;;;;;;18.29;55.27;92711.50;5058996;28;20035;-89
2023/03/10 08:15:05;;;;;;;3.55;1.00;;;;;;;18.26;54.34;92706.91;5059419;28;20029;-89
2023/03/10 08:17:32;;;;;;;3.67;1.10;;;;;;;19.35;51.90;92688.56;5058226;28;20029;-88
2023/03/10 08:19:58;;;;;;;2.40;0.80;;;;;;;20.14;48.66;92674.47;5058001;28;20063;-89
2023/03/10 08:22:23;;;;;;;3.47;1.02;;;;;;;19.53;49.38;92671.28;5058293;28;20047;-88
2023/03/10 08:24:49;;;;;;;1.75;0.60;;;;;;;20.39;46.77;92681.06;5059233;28;20025;-89
2023/03/10 08:27:14;;;;;;;2.92;0.80;;;;;;;19.67;47.37;92668.00;5063833;28;20021;-89
2023/03/10 08:29:40;;;;;;;3.08;0.80;;;;;;;20.34;48.13;92672.31;5078749;28;20066;-88
2023/03/10 08:32:05;;;;;;;1.85;0.70;;;;;;;20.27;45.76;92664.28;5079037;28;20024;-89
2023/03/10 08:34:32;;;;;;;4.20;0.95;;;;;;;18.89;48.45;92660.38;5079062;28;20035;-88
2023/03/10 08:36:59;;;;;;;3.67;1.00;;;;;;;18.07;50.63;92660.81;5077797;28;20028;-89
2023/03/10 08:39:25;;;;;;;4.45;0.70;;;;;;;17.86;50.98;92650.63;5078896;28;20020;-89
2023/03/10 08:41:50;;;;;;;3.47;0.80;;;;;;;18.24;50.45;92654.22;5077424;28;20024;-89
2023/03/10 08:44:17;;;;;;;5.35;0.90;;;;;;;18.57;49.04;92657.31;5077698;28;20518;-88
2023/03/10 08:46:45;;;;;;;3.50;0.70;;;;;;;17.98;51.26;92647.03;5060913;28;20078;-88
2023/03/10 08:49:11;;;;;;;3.13;0.90;;;;;;;18.16;49.00;92663.22;5077389;28;20107;-89
2023/03/10 08:51:37;;;;;;;3.53;0.77;;;;;;;18.73;48.50;92649.19;5078804;28;20025;-88
2023/03/10 08:54:03;;;;;;;2.50;1.02;;;;;;;20.19;45.58;92646.78;5077647;28;20334;-89
2023/03/10 08:56:28;;;;;;;3.75;0.88;;;;;;;19.35;47.47;92647.97;5060700;28;20411;-89
2023/03/10 08:58:57;;;;;;;2.60;0.70;;;;;;;19.47;45.96;92644.28;5077396;28;20052;-89
2023/03/10 09:01:24;;;;;;;2.92;0.73;;;;;;;19.60;47.52;92647.44;5078564;28;20028;-89
2023/03/10 09:03:49;;;;;;;1.08;0.70;;;;;;;19.28;45.74;92643.38;5077354;28;20434;-89
2023/03/10 09:06:15;;;;;;;4.28;0.90;;;;;;;18.99;44.17;92629.00;5078166;28;20036;-89
2023/03/10 09:08:41;;;;;;;2.65;0.63;;;;;;;19.33;43.66;92643.03;5078102;28;20342;-89
2023/03/10 09:11:07;;;;;;;2.80;0.88;;;;;;;18.74;45.30;92635.56;5077224;28;20036;-89
2023/03/10 09:13:32;;;;;;;4.00;1.00;;;;;;;18.62;45.45;92635.78;5078336;28;20449;-88
2023/03/10 09:15:58;;;;;;;3.03;0.73;;;;;;;18.41;46.82;92625.66;5078330;28;20028;-89
2023/03/10 09:18:24;;;;;;;3.67;0.98;;;;;;;17.97;47.12;92630.34;5076861;28;20046;-88
2023/03/10 09:20:50;;;;;;;6.95;1.10;;;;;;;19.10;45.20;92643.19;5077021;28;20032;-88
2023/03/10 09:23:15;;;;;;;3.95;1.02;;;;;;;17.90;47.34;92632.91;5060297;28;20465;-88
2023/03/10 09:25:41;;;;;;;3.58;0.82;;;;;;;19.15;46.29;92634.13;5076920;28;20036;-88
2023/03/10 09:28:08;;;;;;;3.25;0.75;;;;;;;18.07;46.44;92624.47;5077920;28;20032;-89
2023/03/10 09:30:38;;;;;;;5.28;0.65;;;;;;;18.34;46.67;92623.69;5076570;28;20043;-88
2023/03/10 09:33:07;;;;;;;4.53;0.60;;;;;;;19.35;45.88;92629.41;5060422;28;20030;-88
2023/03/10 09:35:33;;;;;;;2.88;0.70;;;;;;;18.14;46.72;92626.47;5076684;28;20020;-89
2023/03/10 09:37:58;;;;;;;0.93;0.43;;;;;;;18.69;45.70;92629.81;5076433;28;20348;-89
2023/03/10 09:40:24;;;;;;;4.30;1.05;;;;;;;18.51;45.65;92627.69;5075838;28;20129;-89
2023/03/10 09:43:05;;;;;;;2.92;0.93;;;;;;;19.90;43.63;92635.91;5076492;28;20425;-88
2023/03/10 09:45:54;;;;;;;2.58;0.80;;;;;;;19.82;43.22;92619.16;5076581;28;20044;-89
2023/03/10 09:48:47;;;;;;;3.58;0.82;;;;;;;19.14;44.24;92637.91;5076231;28;20060;-88
2023/03/10 09:51:20;;;;;;;4.28;0.90;;;;;;;18.55;45.20;92623.19;5077286;28;20032;-88
2023/03/10 09:54:12;;;;;;;5.55;0.90;;;;;;;19.26;43.12;92621.72;5076370;28;20107;-88
2023/03/10 09:56:37;;;;;;;4.72;1.33;;;;;;;18.14;43.65;92621.16;5061072;28;20048;-89
2023/03/10 09:59:11;;;;;;;3.40;0.93;;;;;;;19.17;42.94;92627.34;5076054;28;20055;-88
2023/03/10 10:01:39;;;;;;;8.02;1.67;;;;;;;18.91;43.24;92622.84;5076282;28;20165;-88
2023/03/10 10:04:10;;;;;;;3.60;0.90;;;;;;;17.91;45.10;92621.94;5076028;28;20043;-88
2023/03/10 10:06:43;;;;;;;4.28;0.75;;;;;;;18.46;43.25;92622.72;5059745;28;20024;-89
2023/03/10 10:09:40;;;;;;;5.35;1.02;;;;;;;18.14;43.51;92613.22;5059203;28;20107;-89
2023/03/10 10:12:18;;;;;;;5.00;0.85;;;;;;;18.75;41.77;92621.16;5048036;28;20464;-89
2023/03/10 10:14:44;;;;;;;4.30;1.00;;;;;;;17.82;42.53;92608.19;5076019;28;20024;-88
2023/03/10 10:17:31;;;;;;;2.28;0.93;;;;;;;18.38;43.10;92635.13;5075946;28;20028;-88
2023/03/10 10:19:57;;;;;;;3.45;1.00;;;;;;;17.69;42.89;92625.41;5076844;28;20024;-89
2023/03/10 10:22:28;;;;;;;4.22;0.80;;;;;;;18.21;42.47;92634.50;5075980;28;20108;-88
2023/03/10 10:25:12;;;;;;;7.53;1.25;;;;;;;18.89;41.14;92638.38;5075847;28;20127;-89
2023/03/10 10:27:39;;;;;;;;;;;;;;;18.43;42.36;92626.84;5076199;28;20469;-88
2023/03/10 10:30:37;;;;;;;5.07;1.10;;;;;;;18.39;42.61;92646.47;5058909;28;19912;-88
2023/03/10 10:33:05;;;;;;;5.55;1.33;;;;;;;18.88;42.10;92636.84;5054892;28;20139;-89
2023/03/10 10:35:34;;;;;;;3.97;0.95;;;;;;;17.41;43.14;92610.59;5075762;28;20064;-88
2023/03/10 10:38:05;;;;;;;9.70;1.02;;;;;;;18.15;43.04;92621.94;5075760;28;20056;-88
2023/03/10 10:40:33;;;;;;;6.55;1.27;;;;;;;18.81;42.52;92639.44;5059083;28;20036;-88
2023/03/10 10:42:59;;;;;;;8.88;1.38;;;;;;;17.76;43.88;92636.09;5075730;28;20028;-88
2023/03/10 10:45:30;;;;;;;6.70;1.30;;;;;;;17.65;44.10;92631.41;5072015;28;20055;-88
2023/03/10 10:47:56;;;;;;;5.85;1.50;;;;;;;17.52;44.18;92603.59;5043379;28;20059;-88
2023/03/10 10:50:22;;;;;;;7.10;1.42;;;;;;;18.60;43.41;92632.72;5053677;28;20123;-89
2023/03/10 10:52:51;;;;;;;11.07;1.60;;;;;;;17.40;44.93;92625.69;5079712;28;20028;-89
2023/03/10 10:55:27;;;;;;;5.28;1.48;;;;;;;18.23;43.98;92612.94;5063404;28;20089;-89
2023/03/10 10:57:58;;;;;;;10.95;2.10;;;;;;;18.01;44.18;92609.22;5079464;28;20016;-89
2023/03/10 11:00:29;;;;;;;10.02;1.42;;;;;;;17.89;43.91;92610.19;5079749;28;20054;-88
2023/03/10 11:02:55;;;;;;;8.05;1.25;;;;;;;18.44;43.73;92614.38;5063204;28;20027;-90
2023/03/10 11:05:23;;;;;;;6.15;1.30;;;;;;;17.83;43.78;92630.13;5079339;28;20024;-88
2023/03/10 11:07:49;;;;;;;11.45;1.30;;;;;;;19.70;41.30;92624.75;5079161;28;20443;-88
2023/03/10 11:10:17;;;;;;;5.72;1.20;;;;;;;20.09;41.66;92629.63;5079420;28;20035;-89
2023/03/10 11:13:21;;;;;;;9.65;1.35;;;;;;;19.11;42.48;92622.72;5079483;28;20418;-88
2023/03/10 11:15:50;;;;;;;4.47;1.10;;;;;;;18.23;43.52;92626.19;5021910;28;20029;-88
2023/03/10 11:18:43;;;;;;;5.22;1.60;;;;;;;19.80;41.97;92618.78;5051567;28;20081;-88
2023/03/10 11:21:17;;;;;;;4.05;1.38;;;;;;;19.97;40.96;92621.94;5080433;28;20017;-88
2023/03/10 11:24:08;;;;;;;5.07;1.27;;;;;;;18.30;43.12;92620.22;5079299;28;20150;-88
2023/03/10 11:27:11;;;;;;;8.93;1.42;;;;;;;18.83;42.37;92626.56;5058847;28;20043;-88
2023/03/10 11:29:53;;;;;;;6.00;1.25;;;;;;;20.09;41.67;92632.28;5037832;28;20398;-89
2023/03/10 11:32:21;;;;;;;7.35;1.23;;;;;;;19.22;40.52;92610.28;5072854;28;20458;-89
2023/03/10 11:34:52;;;;;;;8.10;1.48;;;;;;;20.81;40.23;92633.81;5078950;28;20047;-88
2023/03/10 11:37:42;;;;;;;6.30;1.50;;;;;;;19.18;41.44;92607.63;5062383;28;20059;-88